»·PEaware :: N333JS KSNA-KFAT

N333JS :: KSNA-KFAT

FLIGHT INFORMATION

Flight Status: Arrived
Operator: Privately registered:
United States
More flights under this callsign
Pilot: Johnny M. (21174)
Aircraft: BEECH AIRCRAFT SUPER KING AIR 350
(B350)
More flights by this aircraft type
Origin: KSNA John Wayne-Orange Co
United States
Destination: KFAT Fresno Yosemite Intl
United States
More flights between these airports :: More routes between these airports
Route: +MUSEL8 SLI V459 TTE ALTTA9
File this flight plan on PilotEdge
Remarks:
Altitude:
(Current/Filed)
24,000ft
Speed:
(Current/Filed)
290kts
Departed: 23-May-20 08:37 AM
Arrived: 23-May-20 09:39 AM
Distance/Time
Traveled:
207nm/1:02
Distance/Time
To Go:
Arrived

Flight Plot

Page will automatically refresh every two minutes.


Map Options




Map Legend


Flown Route
Filed Route
Departure Airport
Arrival Airport
Navaid (VOR, NDB)
Fix

Horizontal Profiles

Position Reports

Time Latitude Longitude Heading Altitude Ground
Speed
23-May-20 08:05 33.673783 -117.865795 118 61ft 0kts
23-May-20 08:06 33.673783 -117.865795 118 61ft 0kts
23-May-20 08:07 33.673783 -117.865795 118 61ft 0kts
23-May-20 08:08 33.673783 -117.865795 118 61ft 0kts
23-May-20 08:09 33.673783 -117.865795 118 61ft 0kts
23-May-20 08:10 33.673783 -117.865795 118 61ft 0kts
23-May-20 08:11 33.673783 -117.865795 118 61ft 0kts
23-May-20 08:12 33.673783 -117.865795 118 61ft 0kts
23-May-20 08:13 33.673783 -117.865795 118 61ft 0kts
23-May-20 08:14 33.673783 -117.865795 118 61ft 0kts
23-May-20 08:15 33.673783 -117.865795 118 61ft 0kts
23-May-20 08:16 33.673783 -117.865795 118 61ft 0kts
23-May-20 08:17 33.673783 -117.865795 118 61ft 0kts
23-May-20 08:18 33.673783 -117.865795 118 61ft 0kts
23-May-20 08:19 33.673783 -117.865795 118 61ft 0kts
23-May-20 08:20 33.673783 -117.865795 118 61ft 0kts
23-May-20 08:21 33.673783 -117.865795 118 61ft 0kts
23-May-20 08:22 33.673783 -117.865795 118 61ft 0kts
23-May-20 08:23 33.673783 -117.865795 118 61ft 0kts
23-May-20 08:24 33.673783 -117.865795 118 61ft 0kts
23-May-20 08:25 33.673783 -117.865795 118 61ft 0kts
23-May-20 08:26 33.673783 -117.865795 118 61ft 0kts
23-May-20 08:27 33.673783 -117.865795 118 61ft 0kts
23-May-20 08:28 33.673783 -117.865795 118 61ft 0kts
23-May-20 08:29 33.673783 -117.865795 118 61ft 0kts
23-May-20 08:30 33.673783 -117.865795 118 61ft 0kts
23-May-20 08:31 33.673783 -117.865795 118 61ft 0kts
23-May-20 08:32 33.676198 -117.865122 29 61ft 21kts
23-May-20 08:33 33.681031 -117.863937 297 61ft 19kts
23-May-20 08:34 33.681172 -117.864258 297 61ft 0kts
23-May-20 08:35 33.681172 -117.864258 297 61ft 0kts
23-May-20 08:36 33.676106 -117.868549 206 62ft 112kts
23-May-20 08:37 33.645181 -117.884999 187 1956ft 130kts
23-May-20 08:38 33.608878 -117.891510 189 4605ft 135kts
23-May-20 08:39 33.561418 -117.910258 236 5070ft 232kts
23-May-20 08:40 33.550136 -117.991189 264 5764ft 256kts
23-May-20 08:41 33.542286 -118.070730 273 7157ft 244kts
23-May-20 08:42 33.589984 -118.101290 8 9011ft 220kts
23-May-20 08:43 33.644373 -118.088525 5 11691ft 185kts
23-May-20 08:44 33.690389 -118.077368 2 14454ft 161kts
23-May-20 08:45 33.731026 -118.067529 358 17032ft 154kts
23-May-20 08:46 33.780210 -118.061039 334 18149ft 184kts
23-May-20 08:47 33.835628 -118.084874 329 18336ft 238kts
23-May-20 08:48 33.898373 -118.120829 329 18193ft 267kts
23-May-20 08:49 33.965665 -118.159561 330 17292ft 281kts
23-May-20 08:50 34.034228 -118.199114 330 16984ft 271kts
23-May-20 08:51 34.101541 -118.237990 330 16986ft 279kts
23-May-20 08:52 34.172336 -118.278954 330 16990ft 282kts
23-May-20 08:53 34.241623 -118.319100 329 17900ft 254kts
23-May-20 08:54 34.295937 -118.350659 327 20684ft 183kts
23-May-20 08:55 34.341357 -118.377188 327 22051ft 187kts
23-May-20 08:56 34.387594 -118.404127 328 23274ft 191kts
23-May-20 08:57 34.436815 -118.432858 328 24009ft 213kts
23-May-20 08:58 34.495240 -118.466944 329 24001ft 250kts
23-May-20 08:59 34.560458 -118.505060 329 23995ft 267kts
23-May-20 09:00 34.627824 -118.544525 329 23995ft 274kts
23-May-20 09:01 34.698112 -118.581658 336 24009ft 280kts
23-May-20 09:02 34.772776 -118.608804 338 24032ft 282kts
23-May-20 09:03 34.847784 -118.635556 338 24061ft 282kts
23-May-20 09:04 34.922024 -118.662061 338 24083ft 282kts
23-May-20 09:05 34.997417 -118.689030 338 24082ft 283kts
23-May-20 09:06 35.073205 -118.716031 338 24075ft 283kts
23-May-20 09:07 35.148362 -118.742722 338 24057ft 284kts
23-May-20 09:08 35.224426 -118.770023 338 24030ft 284kts
23-May-20 09:09 35.300141 -118.797452 338 24022ft 283kts
23-May-20 09:10 35.314452 -118.802642 338 24021ft 283kts
23-May-20 09:11 35.448767 -118.851451 337 24020ft 282kts
23-May-20 09:12 35.522834 -118.878419 338 22828ft 278kts
23-May-20 09:13 35.596358 -118.905125 338 21582ft 272kts
23-May-20 09:14 35.668798 -118.931493 338 20392ft 269kts
23-May-20 09:15 35.739895 -118.957407 338 19423ft 264kts
23-May-20 09:16 35.810437 -118.983176 338 18456ft 261kts
23-May-20 09:17 35.879932 -119.008610 338 17583ft 258kts
23-May-20 09:18 35.947409 -119.036780 335 16493ft 255kts
23-May-20 09:19 36.013546 -119.068497 336 15314ft 254kts
23-May-20 09:20 36.079348 -119.099826 336 14150ft 252kts
23-May-20 09:21 36.142614 -119.129987 336 14005ft 238kts
23-May-20 09:22 36.205507 -119.160037 337 12666ft 237kts
23-May-20 09:24 36.263783 -119.187936 337 11613ft 212kts
23-May-20 09:25 36.316923 -119.213414 338 10582ft 198kts
23-May-20 09:26 36.367689 -119.237789 338 9565ft 193kts
23-May-20 09:27 36.417461 -119.261710 339 8525ft 192kts
23-May-20 09:28 36.467156 -119.285635 339 7332ft 190kts
23-May-20 09:29 36.516873 -119.309594 339 6014ft 193kts
23-May-20 09:30 36.561942 -119.343804 307 4625ft 197kts
23-May-20 09:31 36.593392 -119.399099 306 4001ft 189kts
23-May-20 09:32 36.623667 -119.452249 310 3995ft 185kts
23-May-20 09:33 36.654464 -119.503717 307 3559ft 184kts
23-May-20 09:34 36.682226 -119.552049 307 3096ft 158kts
23-May-20 09:35 36.706952 -119.595225 306 2446ft 147kts
23-May-20 09:36 36.729936 -119.635490 306 1691ft 139kts
23-May-20 09:37 36.747866 -119.670983 301 1163ft 112kts
23-May-20 09:37 36.763161 -119.697770 304 667ft 113kts
23-May-20 09:39 36.776494 -119.722618 208 339ft 6kts
23-May-20 09:40 36.775587 -119.724984 280 339ft 7kts
23-May-20 09:40 36.776060 -119.726665 215 339ft 0kts
23-May-20 09:41 36.776060 -119.726665 215 339ft 0kts
23-May-20 09:43 36.776060 -119.726665 215 339ft 0kts
23-May-20 09:43 36.776060 -119.726665 215 339ft 0kts
23-May-20 09:44 36.776060 -119.726665 215 339ft 0kts
23-May-20 09:46 36.776060 -119.726665 215 339ft 0kts
23-May-20 09:46 36.776060 -119.726665 215 339ft 0kts
23-May-20 09:47 36.776060 -119.726665 215 339ft 0kts
23-May-20 09:48 36.776060 -119.726665 215 339ft 0kts
23-May-20 09:49 36.776060 -119.726665 215 339ft 0kts
23-May-20 09:50 36.776060 -119.726665 215 339ft 0kts
23-May-20 09:51 36.776060 -119.726665 215 339ft 0kts
23-May-20 09:52 36.776060 -119.726665 215 339ft 0kts

Navigation Log

Ident Type
Flight plan parsing failed, navigation log unavailable